Time;durP1;ratioP1;P1;durP2;ratioP2;P2;SDS_P1;SDS_P2;PMS_P1;PMS_P2;Temp;Humidity;BMP_temperature;BMP_pressure;BME280_temperature;BME280_humidity;BME280_pressure;Samples;Min_cycle;Max_cycle;Signal;HPM_P1;HPM_P2
2021/03/31 00:02:19;;;;;;;3.83;1.50;;;21.10;40.60;;;;;;5082230;28;20454;-48
2021/03/31 00:04:44;;;;;;;3.38;1.67;;;21.10;40.60;;;;;;5092454;28;20385;-52
2021/03/31 00:07:10;;;;;;;2.20;1.70;;;21.10;40.60;;;;;;5093948;28;20062;-54
2021/03/31 00:09:38;;;;;;;3.78;2.08;;;21.10;40.60;;;;;;5092559;28;20059;-50
2021/03/31 00:12:07;;;;;;;3.50;1.65;;;21.10;40.60;;;;;;5090028;28;20082;-51
2021/03/31 00:14:34;;;;;;;2.70;1.58;;;21.10;40.60;;;;;;5083613;28;20526;-52
2021/03/31 00:17:00;;;;;;;2.33;1.45;;;21.10;40.60;;;;;;5081660;28;20143;-54
2021/03/31 00:19:26;;;;;;;3.53;1.80;;;21.00;40.50;;;;;;5074363;28;20623;-51
2021/03/31 00:21:51;;;;;;;3.35;1.70;;;21.10;40.60;;;;;;5076184;28;20086;-48
2021/03/31 00:24:17;;;;;;;2.20;1.50;;;21.10;40.60;;;;;;5086951;28;20024;-45
2021/03/31 00:26:43;;;;;;;3.63;1.83;;;21.10;40.50;;;;;;5093821;28;20034;-49
2021/03/31 00:29:08;;;;;;;2.50;1.50;;;21.10;40.50;;;;;;5090713;28;20454;-52
2021/03/31 00:31:34;;;;;;;3.00;1.63;;;21.10;40.50;;;;;;5073616;28;20508;-52
2021/03/31 00:33:59;;;;;;;2.92;1.75;;;21.10;40.50;;;;;;5082182;28;20134;-50
2021/03/31 00:36:25;;;;;;;2.60;1.70;;;21.10;40.50;;;;;;5073072;28;20120;-51
2021/03/31 00:38:51;;;;;;;4.32;2.25;;;21.10;40.50;;;;;;5072496;28;20029;-55
2021/03/31 00:41:16;;;;;;;2.28;1.70;;;21.10;40.50;;;;;;5085851;28;20040;-48
2021/03/31 00:43:42;;;;;;;5.10;1.70;;;21.10;40.40;;;;;;5084756;28;20112;-53
2021/03/31 00:46:08;;;;;;;2.90;1.80;;;21.10;40.50;;;;;;5084714;28;20036;-54
2021/03/31 00:48:33;;;;;;;4.60;2.10;;;21.00;40.40;;;;;;5078768;28;20377;-52
2021/03/31 00:51:01;;;;;;;2.75;1.42;;;21.00;40.40;;;;;;5074728;28;20036;-48
2021/03/31 00:53:46;;;;;;;3.22;1.80;;;21.00;40.40;;;;;;5077627;28;20017;-52
2021/03/31 00:56:12;;;;;;;3.15;1.60;;;21.00;40.40;;;;;;5072705;28;20084;-53
2021/03/31 00:58:38;;;;;;;2.50;1.30;;;21.00;40.40;;;;;;5078409;28;20063;-47
2021/03/31 01:01:05;;;;;;;2.45;1.77;;;21.00;40.40;;;;;;5079347;28;20432;-52
2021/03/31 01:03:31;;;;;;;6.90;1.83;;;21.00;40.40;;;;;;5085799;28;20028;-45
2021/03/31 01:05:57;;;;;;;2.60;1.90;;;21.00;40.40;;;;;;5073188;28;20047;-51
2021/03/31 01:08:22;;;;;;;2.08;1.50;;;21.00;40.40;;;;;;5072873;28;20078;-53
2021/03/31 01:10:56;;;;;;;2.72;1.75;;;21.00;40.40;;;;;;5082769;28;20549;-53
2021/03/31 01:13:45;;;;;;;2.95;1.80;;;21.10;40.50;;;;;;5081848;28;20024;-53
2021/03/31 01:16:44;;;;;;;2.70;1.75;;;21.10;40.30;;;;;;5077819;28;20432;-53
2021/03/31 01:19:33;;;;;;;2.78;1.60;;;21.10;40.30;;;;;;5080837;28;20039;-57
2021/03/31 01:22:10;;;;;;;7.63;1.58;;;21.10;40.50;;;;;;5075196;28;20052;-52
2021/03/31 01:24:57;;;;;;;3.28;1.40;;;21.10;40.60;;;;;;5083760;28;20032;-54
2021/03/31 01:27:35;;;;;;;9.02;2.60;;;21.10;40.70;;;;;;5083011;28;21368;-49
2021/03/31 01:30:05;;;;;;;4.97;1.63;;;21.10;40.70;;;;;;5081172;28;20496;-49
2021/03/31 01:32:34;;;;;;;4.10;2.47;;;21.10;40.80;;;;;;5080036;28;20147;-53
2021/03/31 01:35:06;;;;;;;2.28;1.50;;;21.10;40.80;;;;;;5078473;28;20056;-52
2021/03/31 01:37:33;;;;;;;2.40;1.42;;;21.10;40.90;;;;;;5081152;28;20610;-52
2021/03/31 01:40:03;;;;;;;4.60;2.13;;;21.10;40.70;;;;;;5080718;28;20431;-52
2021/03/31 01:42:34;;;;;;;2.50;1.60;;;21.10;40.60;;;;;;5078583;28;20044;-52
2021/03/31 01:45:03;;;;;;;6.33;2.13;;;21.10;40.80;;;;;;5083234;28;20055;-51
2021/03/31 01:47:35;;;;;;;4.05;2.10;;;21.10;40.70;;;;;;5079811;28;20111;-54
2021/03/31 01:50:03;;;;;;;2.25;1.63;;;21.10;40.60;;;;;;5080314;28;20028;-54
2021/03/31 01:52:29;;;;;;;3.55;1.52;;;21.00;40.60;;;;;;5079514;28;20795;-53
2021/03/31 01:54:58;;;;;;;3.78;1.50;;;21.10;40.70;;;;;;5084337;28;20028;-48
2021/03/31 01:57:25;;;;;;;2.38;1.60;;;21.00;40.60;;;;;;5083458;28;20122;-49
2021/03/31 01:59:53;;;;;;;2.97;2.00;;;21.00;40.70;;;;;;5083002;28;20366;-53
2021/03/31 02:02:24;;;;;;;3.20;1.70;;;21.10;40.70;;;;;;5081280;28;20031;-52
2021/03/31 02:04:51;;;;;;;2.83;1.67;;;21.00;40.60;;;;;;5082191;28;20036;-49
2021/03/31 02:07:19;;;;;;;3.38;2.05;;;21.00;40.80;;;;;;5081619;28;20040;-49
2021/03/31 02:09:46;;;;;;;2.20;1.63;;;21.10;40.70;;;;;;5080441;28;20031;-56
2021/03/31 02:12:14;;;;;;;3.08;1.60;;;21.10;40.70;;;;;;5078271;28;20020;-53
2021/03/31 02:14:46;;;;;;;3.72;1.60;;;21.00;40.60;;;;;;5081527;28;20432;-52
2021/03/31 02:17:16;;;;;;;2.70;1.45;;;21.00;40.60;;;;;;5081362;28;20446;-52
2021/03/31 02:19:44;;;;;;;7.20;2.65;;;21.00;40.80;;;;;;5081760;28;20036;-52
2021/03/31 02:22:12;;;;;;;4.05;1.70;;;21.00;40.60;;;;;;5078376;28;20023;-57
2021/03/31 02:24:39;;;;;;;2.60;1.60;;;21.00;40.70;;;;;;5081128;28;20020;-55
2021/03/31 02:27:05;;;;;;;4.05;1.90;;;21.00;40.60;;;;;;5082270;28;20032;-52
2021/03/31 02:29:31;;;;;;;6.43;2.28;;;21.00;40.70;;;;;;5083432;28;20019;-50
2021/03/31 02:31:57;;;;;;;3.03;1.58;;;21.00;40.60;;;;;;5080825;28;20403;-50
2021/03/31 02:34:25;;;;;;;5.28;1.80;;;21.00;40.70;;;;;;5082433;28;20032;-50
2021/03/31 02:36:52;;;;;;;2.72;1.52;;;21.00;40.60;;;;;;5079759;28;20405;-52
2021/03/31 02:39:21;;;;;;;4.55;1.67;;;21.00;40.80;;;;;;5078063;28;20543;-49
2021/03/31 02:41:50;;;;;;;2.00;1.63;;;21.00;40.60;;;;;;5083773;28;20024;-53
2021/03/31 02:44:20;;;;;;;3.47;1.65;;;21.00;40.60;;;;;;5079582;28;20478;-50
2021/03/31 02:46:47;;;;;;;2.30;1.70;;;21.00;40.80;;;;;;5079465;28;20052;-51
2021/03/31 02:49:13;;;;;;;3.08;1.50;;;21.00;40.80;;;;;;5080635;28;20025;-55
2021/03/31 02:51:40;;;;;;;4.28;1.20;;;21.00;40.70;;;;;;5080775;28;20028;-52
2021/03/31 02:54:10;;;;;;;3.45;1.30;;;21.00;40.90;;;;;;5083648;28;20495;-51
2021/03/31 02:56:39;;;;;;;4.30;1.88;;;21.00;40.80;;;;;;5083693;28;20065;-51
2021/03/31 02:59:05;;;;;;;4.10;2.03;;;21.00;40.80;;;;;;5083510;28;20028;-54
2021/03/31 03:01:32;;;;;;;2.60;1.50;;;21.00;40.80;;;;;;5076271;28;20067;-52
2021/03/31 03:03:58;;;;;;;2.53;1.65;;;21.00;40.60;;;;;;5085325;28;20073;-52
2021/03/31 03:06:25;;;;;;;3.08;1.35;;;21.00;40.70;;;;;;5073129;28;20040;-49
2021/03/31 03:08:56;;;;;;;3.53;1.30;;;21.00;40.80;;;;;;5071295;28;20031;-49
2021/03/31 03:11:23;;;;;;;3.30;1.38;;;21.00;41.50;;;;;;5077029;28;20374;-53
2021/03/31 03:13:49;;;;;;;2.65;1.35;;;21.00;41.00;;;;;;5075541;28;20016;-48
2021/03/31 03:16:16;;;;;;;3.35;1.55;;;21.00;40.80;;;;;;5086656;28;20071;-54
2021/03/31 03:18:43;;;;;;;2.13;1.50;;;21.00;40.90;;;;;;5070404;28;20373;-51
2021/03/31 03:21:10;;;;;;;2.08;1.30;;;21.00;40.90;;;;;;5078587;28;20151;-53
2021/03/31 03:23:36;;;;;;;2.80;1.35;;;21.00;40.70;;;;;;5075547;28;20033;-52
2021/03/31 03:26:02;;;;;;;2.95;1.83;;;21.00;40.80;;;;;;5082373;28;20040;-56
2021/03/31 03:28:30;;;;;;;2.40;1.60;;;21.00;40.80;;;;;;5086435;28;20028;-52
2021/03/31 03:30:57;;;;;;;2.47;1.70;;;21.00;40.70;;;;;;5079266;28;20115;-49
2021/03/31 03:33:25;;;;;;;2.85;1.80;;;20.90;40.60;;;;;;5087461;28;20051;-53
2021/03/31 03:35:51;;;;;;;3.42;1.55;;;21.00;40.80;;;;;;5077450;28;20239;-53
2021/03/31 03:38:17;;;;;;;2.75;1.60;;;20.90;40.70;;;;;;5086593;28;20099;-53
2021/03/31 03:40:46;;;;;;;3.70;1.60;;;20.90;40.80;;;;;;5085124;28;20192;-51
2021/03/31 03:43:14;;;;;;;2.78;1.92;;;20.90;40.80;;;;;;5094310;28;20089;-54
2021/03/31 03:45:42;;;;;;;2.85;1.50;;;21.00;40.90;;;;;;5089000;28;20043;-51
2021/03/31 03:48:08;;;;;;;2.85;1.50;;;20.90;40.80;;;;;;5078820;28;20033;-54
2021/03/31 03:50:34;;;;;;;2.55;1.70;;;20.90;40.90;;;;;;5082299;28;20076;-51
2021/03/31 03:53:01;;;;;;;2.35;1.70;;;20.90;40.70;;;;;;5088343;28;20104;-51
2021/03/31 03:55:27;;;;;;;2.05;1.50;;;20.90;40.80;;;;;;5069564;28;20047;-53
2021/03/31 03:57:53;;;;;;;2.50;1.40;;;21.00;40.80;;;;;;5086751;28;20028;-50
2021/03/31 04:00:24;;;;;;;4.05;1.85;;;20.90;40.80;;;;;;5080917;28;20515;-51
2021/03/31 04:02:55;;;;;;;2.80;1.60;;;20.90;40.80;;;;;;5088704;28;20419;-50
2021/03/31 04:05:22;;;;;;;2.58;1.58;;;20.90;40.80;;;;;;5092203;28;20086;-55
2021/03/31 04:07:48;;;;;;;2.38;1.48;;;20.90;40.70;;;;;;5090141;28;20029;-45
2021/03/31 04:10:15;;;;;;;4.22;2.40;;;20.90;40.90;;;;;;5088253;28;20044;-52
2021/03/31 04:12:41;;;;;;;2.60;1.50;;;20.90;40.90;;;;;;5089715;28;20104;-51
2021/03/31 04:15:12;;;;;;;3.65;1.73;;;20.90;40.90;;;;;;5093995;28;20055;-53
2021/03/31 04:17:40;;;;;;;2.42;1.35;;;20.90;40.80;;;;;;5090016;28;20029;-53
2021/03/31 04:20:14;;;;;;;2.17;1.50;;;20.90;40.80;;;;;;5085244;28;20032;-52
2021/03/31 04:22:41;;;;;;;2.15;1.52;;;20.90;40.80;;;;;;5074834;28;20029;-53
2021/03/31 04:25:09;;;;;;;2.80;1.70;;;20.90;40.90;;;;;;5080876;28;20107;-52
2021/03/31 04:27:36;;;;;;;1.88;1.30;;;20.90;40.70;;;;;;5083005;28;20262;-53
2021/03/31 04:30:09;;;;;;;1.52;1.38;;;20.90;40.80;;;;;;5074317;28;20040;-53
2021/03/31 04:32:38;;;;;;;2.42;1.30;;;20.90;40.80;;;;;;5080689;28;20039;-54
2021/03/31 04:35:05;;;;;;;1.92;1.30;;;20.90;40.80;;;;;;5087037;28;20028;-53
2021/03/31 04:37:31;;;;;;;1.65;1.33;;;20.90;40.70;;;;;;5081697;28;20097;-51
2021/03/31 04:39:56;;;;;;;2.70;1.42;;;20.90;40.80;;;;;;5093538;28;20074;-50
2021/03/31 04:42:23;;;;;;;3.15;1.77;;;20.90;40.80;;;;;;5085353;28;20039;-53
2021/03/31 04:44:48;;;;;;;2.92;1.67;;;20.90;40.80;;;;;;5077076;28;20103;-54
2021/03/31 04:47:14;;;;;;;2.28;1.27;;;20.90;40.80;;;;;;5084545;28;20111;-55
2021/03/31 04:49:40;;;;;;;2.55;1.33;;;20.90;40.70;;;;;;5074388;28;20466;-48
2021/03/31 04:52:06;;;;;;;3.25;1.40;;;20.90;40.80;;;;;;5073750;28;20033;-49
2021/03/31 04:54:31;;;;;;;2.38;1.42;;;20.90;40.80;;;;;;5080961;28;20036;-52
2021/03/31 04:56:57;;;;;;;2.60;1.60;;;20.90;40.90;;;;;;5077457;28;20040;-49
2021/03/31 04:59:23;;;;;;;2.50;1.35;;;20.90;40.90;;;;;;5090838;28;20069;-50
2021/03/31 05:01:48;;;;;;;3.67;1.75;;;20.90;40.80;;;;;;5092944;28;20028;-53
2021/03/31 05:04:14;;;;;;;1.92;1.40;;;20.90;40.90;;;;;;5088854;28;20028;-54
2021/03/31 05:06:40;;;;;;;2.38;1.35;;;20.90;41.50;;;;;;5080161;28;20389;-53
2021/03/31 05:09:06;;;;;;;3.63;2.17;;;20.90;40.80;;;;;;5077042;28;20059;-50
2021/03/31 05:11:31;;;;;;;2.75;1.75;;;20.90;40.80;;;;;;5085011;28;20048;-53
2021/03/31 05:13:57;;;;;;;2.10;1.50;;;20.90;40.90;;;;;;5077252;28;20376;-51
2021/03/31 05:16:23;;;;;;;2.88;1.45;;;20.90;40.90;;;;;;5088585;28;20444;-52
2021/03/31 05:18:48;;;;;;;2.33;1.55;;;20.90;40.90;;;;;;5091065;28;20028;-51
2021/03/31 05:21:14;;;;;;;1.80;1.27;;;20.90;40.90;;;;;;5085532;28;20025;-56
2021/03/31 05:23:40;;;;;;;2.25;1.38;;;20.90;40.90;;;;;;5076264;28;20073;-50
2021/03/31 05:26:05;;;;;;;1.85;1.30;;;20.90;40.90;;;;;;5080426;28;20496;-49
2021/03/31 05:28:31;;;;;;;3.50;1.50;;;20.90;40.90;;;;;;5072152;28;20480;-52
2021/03/31 05:30:57;;;;;;;3.50;1.70;;;20.90;40.90;;;;;;5090604;28;20024;-52
2021/03/31 05:33:23;;;;;;;1.90;1.52;;;20.80;40.90;;;;;;5073710;28;20029;-55
2021/03/31 05:35:48;;;;;;;3.28;1.45;;;20.90;40.90;;;;;;5090067;28;20032;-52
2021/03/31 05:38:14;;;;;;;1.98;1.40;;;20.90;41.00;;;;;;5090928;28;20016;-52
2021/03/31 05:40:40;;;;;;;1.63;1.40;;;20.90;41.00;;;;;;5087526;28;20724;-51
2021/03/31 05:43:06;;;;;;;4.00;2.13;;;20.90;41.00;;;;;;5078273;28;20417;-50
2021/03/31 05:45:32;;;;;;;3.40;1.60;;;20.80;41.00;;;;;;5080714;28;20036;-53
2021/03/31 05:47:59;;;;;;;4.80;1.60;;;20.90;41.20;;;;;;5071212;28;20392;-50
2021/03/31 05:50:26;;;;;;;3.67;1.73;;;20.90;41.30;;;;;;5071469;28;20032;-53
2021/03/31 05:52:52;;;;;;;4.03;1.88;;;20.80;41.20;;;;;;5071166;28;20086;-52
2021/03/31 05:55:18;;;;;;;2.42;1.60;;;20.80;41.40;;;;;;5077539;28;20373;-55
2021/03/31 05:57:45;;;;;;;6.13;1.70;;;20.90;41.60;;;;;;5072753;28;20025;-51
2021/03/31 06:00:13;;;;;;;10.70;2.15;;;20.90;41.90;;;;;;5073455;28;20029;-50
2021/03/31 06:02:40;;;;;;;6.90;2.65;;;20.90;42.70;;;;;;5072431;28;20016;-54
2021/03/31 06:05:08;;;;;;;10.50;1.90;;;20.90;42.70;;;;;;5091770;28;20034;-56
2021/03/31 06:07:34;;;;;;;13.98;2.50;;;21.00;43.10;;;;;;5089553;28;20024;-52
2021/03/31 06:10:11;;;;;;;14.20;2.65;;;21.00;43.40;;;;;;5076197;28;20100;-49
2021/03/31 06:12:40;;;;;;;14.32;2.42;;;21.10;43.80;;;;;;5071435;28;20021;-51
2021/03/31 06:15:21;;;;;;;13.15;2.85;;;21.10;43.80;;;;;;5072014;28;20031;-50
2021/03/31 06:18:13;;;;;;;8.82;2.58;;;21.10;44.30;;;;;;5080673;28;20036;-54
2021/03/31 06:20:51;;;;;;;12.80;3.47;;;21.10;44.20;;;;;;5069130;28;20338;-50
2021/03/31 06:26:29;;;;;;;9.30;2.13;;;21.00;44.20;;;;;;5080654;28;20093;-48
2021/03/31 06:29:05;;;;;;;11.55;2.10;;;21.00;44.20;;;;;;5077241;28;20036;-53
2021/03/31 06:31:36;;;;;;;7.18;1.98;;;21.00;44.50;;;;;;5079124;28;20549;-53
2021/03/31 06:34:07;;;;;;;7.80;2.22;;;21.00;44.60;;;;;;5081556;28;20028;-55
2021/03/31 06:36:46;;;;;;;13.02;2.38;;;21.00;44.70;;;;;;5073691;28;20044;-54
2021/03/31 06:39:23;;;;;;;6.97;2.83;;;21.00;44.70;;;;;;5083449;28;20079;-52
2021/03/31 06:42:18;;;;;;;8.38;2.47;;;21.00;44.80;;;;;;5064544;28;20024;-52
2021/03/31 06:45:01;;;;;;;8.32;2.50;;;21.00;44.90;;;;;;5081351;28;20039;-50
2021/03/31 06:50:03;;;;;;;11.98;2.60;;;20.90;44.90;;;;;;5072570;28;20033;-50
2021/03/31 06:52:30;;;;;;;11.27;2.40;;;20.90;45.00;;;;;;5071140;28;20029;-56
2021/03/31 06:55:03;;;;;;;9.35;2.80;;;20.90;45.00;;;;;;5090475;28;20067;-53
2021/03/31 06:57:35;;;;;;;6.63;2.45;;;20.90;44.90;;;;;;5074114;28;20496;-52
2021/03/31 07:00:11;;;;;;;9.27;3.05;;;20.90;45.00;;;;;;5077301;28;20063;-49
2021/03/31 07:02:38;;;;;;;6.22;2.40;;;20.90;45.00;;;;;;5070869;28;20043;-48
2021/03/31 07:05:09;;;;;;;8.85;2.45;;;20.90;45.00;;;;;;5070140;28;20024;-48
2021/03/31 07:07:37;;;;;;;10.75;2.28;;;20.90;45.00;;;;;;5070766;28;20385;-50
2021/03/31 07:10:12;;;;;;;8.73;2.17;;;20.90;45.10;;;;;;5076861;28;20028;-49
2021/03/31 07:12:39;;;;;;;7.40;2.40;;;20.90;45.00;;;;;;5079551;28;20220;-51
2021/03/31 07:15:06;;;;;;;10.15;2.45;;;20.90;45.00;;;;;;5089569;28;20036;-51
2021/03/31 07:17:33;;;;;;;6.82;2.58;;;20.90;45.00;;;;;;5089278;28;20043;-51
2021/03/31 07:20:00;;;;;;;11.80;2.28;;;20.90;45.00;;;;;;5084791;28;20052;-46
2021/03/31 07:22:26;;;;;;;5.15;1.67;;;20.90;45.00;;;;;;5081151;28;20033;-50
2021/03/31 07:24:54;;;;;;;4.97;2.08;;;20.90;45.00;;;;;;5073580;28;20028;-50
2021/03/31 07:27:24;;;;;;;7.75;2.47;;;20.90;44.90;;;;;;5070955;28;20035;-53
2021/03/31 07:30:09;;;;;;;9.48;2.42;;;20.90;44.90;;;;;;5083412;28;20030;-54
2021/03/31 07:32:43;;;;;;;4.50;2.03;;;20.90;44.80;;;;;;5071545;28;20434;-55
2021/03/31 07:35:09;;;;;;;6.22;2.13;;;20.90;44.90;;;;;;5072364;28;20035;-51
2021/03/31 07:37:36;;;;;;;4.05;2.15;;;20.90;44.80;;;;;;5073526;28;20037;-48
2021/03/31 07:40:07;;;;;;;5.05;2.40;;;20.90;44.80;;;;;;5080683;28;20029;-55
2021/03/31 07:42:34;;;;;;;5.90;2.60;;;20.90;44.80;;;;;;5085710;28;20459;-48
2021/03/31 07:45:02;;;;;;;6.05;2.30;;;20.90;44.80;;;;;;5070829;28;20107;-54
2021/03/31 07:47:31;;;;;;;7.15;1.83;;;20.90;44.80;;;;;;5090029;28;20024;-48
2021/03/31 07:49:57;;;;;;;6.97;2.10;;;20.90;44.80;;;;;;5082279;28;20377;-48
2021/03/31 07:52:53;;;;;;;9.30;2.50;;;20.90;44.80;;;;;;5087999;28;20052;-53
2021/03/31 07:55:36;;;;;;;6.80;2.47;;;20.90;44.70;;;;;;5082145;28;20119;-53
2021/03/31 07:58:14;;;;;;;5.65;1.95;;;20.90;44.70;;;;;;5090399;28;20055;-48
2021/03/31 08:03:20;;;;;;;4.57;1.88;;;20.90;44.70;;;;;;5074824;28;20029;-53
2021/03/31 08:06:09;;;;;;;10.50;3.28;;;20.90;44.60;;;;;;5070568;28;20139;-51
2021/03/31 08:08:43;;;;;;;5.45;1.95;;;20.90;44.70;;;;;;5076724;28;20028;-50
2021/03/31 08:11:09;;;;;;;6.28;3.13;;;20.90;44.60;;;;;;5074191;28;20084;-49
2021/03/31 08:13:45;;;;;;;5.13;1.95;;;20.90;44.60;;;;;;5077765;28;20032;-54
2021/03/31 08:16:42;;;;;;;3.80;2.25;;;20.90;44.60;;;;;;5088474;28;20032;-50
2021/03/31 08:19:21;;;;;;;4.60;2.22;;;20.90;44.50;;;;;;5075052;28;20115;-50
2021/03/31 08:21:49;;;;;;;6.97;2.60;;;20.90;44.50;;;;;;5074395;28;20082;-50
2021/03/31 08:24:17;;;;;;;4.13;2.03;;;20.90;44.50;;;;;;5079595;28;20028;-51
2021/03/31 08:26:45;;;;;;;4.68;1.92;;;20.90;44.50;;;;;;5073417;28;20034;-54
2021/03/31 08:29:30;;;;;;;5.93;2.30;;;20.90;44.50;;;;;;5075168;28;20465;-54
2021/03/31 08:32:01;;;;;;;5.68;2.00;;;20.90;44.50;;;;;;5086906;28;20082;-50
2021/03/31 08:34:29;;;;;;;4.20;2.22;;;20.90;44.50;;;;;;5084985;28;20052;-50
2021/03/31 08:36:55;;;;;;;5.70;3.38;;;20.90;44.50;;;;;;5092920;28;20077;-50
2021/03/31 08:39:21;;;;;;;3.95;2.17;;;20.90;44.40;;;;;;5083577;28;20032;-53
2021/03/31 08:41:52;;;;;;;4.00;2.38;;;20.90;44.50;;;;;;5085368;28;20103;-49
2021/03/31 08:44:39;;;;;;;4.40;2.35;;;20.90;44.40;;;;;;5087460;28;20020;-51
2021/03/31 08:47:23;;;;;;;5.38;2.17;;;20.90;44.50;;;;;;5088343;28;20042;-52
2021/03/31 08:50:06;;;;;;;3.63;1.98;;;20.90;44.40;;;;;;5083526;28;20078;-50
2021/03/31 08:52:34;;;;;;;5.50;2.33;;;20.90;44.40;;;;;;5075041;28;20056;-51
2021/03/31 08:55:05;;;;;;;4.28;2.10;;;20.90;44.40;;;;;;5078532;28;20094;-53
2021/03/31 08:57:31;;;;;;;6.28;2.15;;;20.90;44.40;;;;;;5090060;28;20366;-51
2021/03/31 09:00:00;;;;;;;5.90;2.13;;;20.90;44.50;;;;;;5089979;28;20031;-49
2021/03/31 09:02:31;;;;;;;4.03;2.20;;;20.90;44.50;;;;;;5084467;28;20101;-50
2021/03/31 09:04:58;;;;;;;5.35;2.10;;;20.90;44.50;;;;;;5089553;28;20040;-51
2021/03/31 09:07:25;;;;;;;6.07;2.85;;;20.90;44.50;;;;;;5091493;28;20028;-50
2021/03/31 09:09:51;;;;;;;4.60;2.03;;;20.90;44.40;;;;;;5091346;28;20078;-53
2021/03/31 09:12:20;;;;;;;5.65;1.98;;;20.90;44.40;;;;;;5088132;28;20078;-50
2021/03/31 09:14:48;;;;;;;5.13;2.20;;;20.90;44.40;;;;;;5083732;28;20028;-53
2021/03/31 09:17:24;;;;;;;2.72;2.05;;;20.90;44.40;;;;;;5090104;28;20064;-49
2021/03/31 09:19:56;;;;;;;3.92;1.90;;;21.00;44.50;;;;;;5087934;28;20028;-51
2021/03/31 09:22:23;;;;;;;6.80;2.58;;;21.00;44.60;;;;;;5076084;28;20074;-55
2021/03/31 09:24:55;;;;;;;9.73;2.03;;;21.00;44.80;;;;;;5092311;28;20052;-53
2021/03/31 09:27:24;;;;;;;3.03;1.63;;;21.00;44.90;;;;;;5074218;28;20032;-52
2021/03/31 09:29:53;;;;;;;5.15;2.20;;;21.00;45.10;;;;;;5078189;28;20072;-48
2021/03/31 09:32:25;;;;;;;3.17;1.80;;;21.00;45.10;;;;;;5083706;28;20024;-53
2021/03/31 09:34:51;;;;;;;4.65;2.20;;;21.00;45.20;;;;;;5074163;28;20154;-50
2021/03/31 09:37:21;;;;;;;4.03;2.35;;;21.00;45.20;;;;;;5084135;28;20108;-51
2021/03/31 09:39:55;;;;;;;4.97;2.00;;;21.00;45.20;;;;;;5088931;28;20499;-51
2021/03/31 09:42:29;;;;;;;6.28;2.00;;;21.00;45.20;;;;;;5080597;28;20032;-53
2021/03/31 09:44:55;;;;;;;3.85;2.03;;;21.00;45.30;;;;;;5071540;28;20412;-52
2021/03/31 09:47:23;;;;;;;4.00;2.03;;;21.00;45.30;;;;;;5089420;28;20089;-52
2021/03/31 09:49:50;;;;;;;3.85;2.05;;;21.00;45.30;;;;;;5083391;28;20070;-54
2021/03/31 09:52:16;;;;;;;5.13;2.13;;;21.00;45.30;;;;;;5084700;28;20060;-52
2021/03/31 09:54:46;;;;;;;4.00;2.00;;;21.00;45.20;;;;;;5081014;28;20161;-49
2021/03/31 09:57:15;;;;;;;5.18;2.10;;;21.00;45.30;;;;;;5072629;28;20048;-54
2021/03/31 09:59:42;;;;;;;2.75;2.13;;;21.00;45.30;;;;;;5079126;28;20043;-51
2021/03/31 10:02:09;;;;;;;5.78;2.70;;;21.00;46.00;;;;;;5085044;28;20473;-52
2021/03/31 10:04:40;;;;;;;4.05;2.08;;;21.00;45.30;;;;;;5091378;28;20024;-50
2021/03/31 10:07:12;;;;;;;3.60;1.92;;;21.00;45.20;;;;;;5088466;28;20039;-50
2021/03/31 10:09:44;;;;;;;5.30;2.15;;;21.00;45.30;;;;;;5087243;28;20019;-49
2021/03/31 10:12:11;;;;;;;4.97;2.53;;;21.00;45.30;;;;;;5079565;28;20492;-50
2021/03/31 10:14:49;;;;;;;4.22;1.90;;;21.00;45.30;;;;;;5080577;28;20020;-54
2021/03/31 10:17:17;;;;;;;4.18;2.00;;;21.00;45.20;;;;;;5073256;28;20118;-51
2021/03/31 10:19:43;;;;;;;2.97;2.25;;;21.00;45.20;;;;;;5083237;28;20799;-54
2021/03/31 10:22:09;;;;;;;5.93;2.22;;;21.00;45.20;;;;;;5083083;28;20027;-54
2021/03/31 10:24:41;;;;;;;5.90;2.10;;;21.00;45.30;;;;;;5088998;28;20024;-49
2021/03/31 10:27:08;;;;;;;4.32;1.95;;;21.00;45.10;;;;;;5087010;28;20064;-50
2021/03/31 10:29:35;;;;;;;3.72;2.75;;;21.00;45.20;;;;;;5075130;28;20040;-50
2021/03/31 10:32:02;;;;;;;5.78;2.22;;;21.00;45.20;;;;;;5077307;28;20078;-53
2021/03/31 10:34:42;;;;;;;3.22;2.05;;;21.00;45.20;;;;;;5070652;28;20032;-54
2021/03/31 10:37:22;;;;;;;3.92;1.77;;;21.00;45.20;;;;;;5071713;28;20041;-54
2021/03/31 10:53:46;;;;;;;4.80;2.15;;;21.10;45.40;;;;;;5084724;28;20032;-53
2021/03/31 10:56:13;;;;;;;5.10;2.17;;;21.10;45.40;;;;;;5083431;28;20047;-49
2021/03/31 10:58:41;;;;;;;5.57;2.20;;;21.10;45.40;;;;;;5070863;28;20135;-49
2021/03/31 11:01:10;;;;;;;4.78;2.40;;;21.10;45.30;;;;;;5072390;28;20481;-50
2021/03/31 11:03:36;;;;;;;6.43;2.40;;;21.10;45.30;;;;;;5078742;28;20029;-49
2021/03/31 11:06:02;;;;;;;3.17;2.00;;;21.10;45.40;;;;;;5071199;28;20158;-50
2021/03/31 11:08:28;;;;;;;4.35;2.13;;;21.10;45.60;;;;;;5070440;28;20032;-48
2021/03/31 11:10:53;;;;;;;5.60;2.72;;;21.10;45.40;;;;;;5076068;28;20051;-48
2021/03/31 11:13:19;;;;;;;5.63;3.42;;;21.00;45.40;;;;;;5091112;28;20028;-54
2021/03/31 11:15:45;;;;;;;2.97;2.08;;;21.00;45.40;;;;;;5091174;28;20409;-55
2021/03/31 11:25:54;;;;;;;3.60;2.08;;;21.10;45.30;;;;;;5084010;28;20500;-50
2021/03/31 11:28:21;;;;;;;5.00;2.50;;;21.00;45.40;;;;;;5090721;28;20036;-54
2021/03/31 11:30:47;;;;;;;4.82;1.85;;;21.00;45.30;;;;;;5089043;28;20101;-51
2021/03/31 11:33:13;;;;;;;2.80;1.52;;;21.00;45.40;;;;;;5078124;28;20059;-51
2021/03/31 11:35:39;;;;;;;2.90;1.70;;;21.10;45.40;;;;;;5089609;28;20047;-51
2021/03/31 11:38:05;;;;;;;5.72;2.13;;;21.00;45.40;;;;;;5090206;28;20067;-50
2021/03/31 11:40:31;;;;;;;3.28;1.80;;;21.00;45.30;;;;;;5090142;28;20362;-52
2021/03/31 11:42:57;;;;;;;3.15;1.95;;;21.00;45.30;;;;;;5080928;28;20078;-50
2021/03/31 11:45:23;;;;;;;4.05;1.95;;;21.00;45.30;;;;;;5092244;28;20107;-54
2021/03/31 11:47:49;;;;;;;4.65;1.80;;;21.00;45.20;;;;;;5083337;28;21692;-53
2021/03/31 11:50:14;;;;;;;4.75;1.90;;;21.10;45.30;;;;;;5080052;28;20035;-51
2021/03/31 11:52:40;;;;;;;2.85;1.73;;;21.00;45.20;;;;;;5083770;28;20032;-49
2021/03/31 11:55:07;;;;;;;3.65;2.25;;;21.00;45.10;;;;;;5093311;28;20082;-49
2021/03/31 11:57:33;;;;;;;5.43;1.90;;;21.00;45.10;;;;;;5089723;28;20047;-50
2021/03/31 11:59:58;;;;;;;3.67;2.00;;;21.00;45.00;;;;;;5075764;28;20020;-50
2021/03/31 12:02:24;;;;;;;4.95;2.03;;;21.00;44.80;;;;;;5082650;28;20119;-55
2021/03/31 12:04:50;;;;;;;3.70;1.90;;;21.10;44.80;;;;;;5087229;28;20028;-50
2021/03/31 12:07:18;;;;;;;2.53;1.80;;;21.00;44.70;;;;;;5074565;28;20115;-52
2021/03/31 12:09:43;;;;;;;3.67;2.15;;;21.00;44.80;;;;;;5077122;28;20020;-48
2021/03/31 12:12:11;;;;;;;4.30;2.00;;;21.00;44.80;;;;;;5080673;28;20059;-48
2021/03/31 12:14:37;;;;;;;4.28;2.03;;;21.10;44.80;;;;;;5074392;28;20518;-49
2021/03/31 12:17:03;;;;;;;5.15;2.15;;;21.00;45.40;;;;;;5070662;28;20064;-47
2021/03/31 12:19:29;;;;;;;3.45;1.77;;;21.00;44.70;;;;;;5087992;28;20484;-49
2021/03/31 12:21:55;;;;;;;3.70;1.90;;;21.00;44.70;;;;;;5087472;28;20028;-49
2021/03/31 12:24:22;;;;;;;4.93;2.17;;;21.10;44.70;;;;;;5081135;28;20827;-51
2021/03/31 12:26:48;;;;;;;3.88;2.08;;;21.00;44.60;;;;;;5074902;28;20028;-50
2021/03/31 12:29:15;;;;;;;5.57;1.75;;;21.00;44.60;;;;;;5074133;28;20354;-48
2021/03/31 12:31:42;;;;;;;3.30;1.60;;;21.00;44.50;;;;;;5076360;28;20021;-48
2021/03/31 12:34:08;;;;;;;4.20;2.15;;;21.10;44.50;;;;;;5093288;28;20380;-49
2021/03/31 12:36:34;;;;;;;3.15;1.55;;;21.10;44.50;;;;;;5079941;28;20077;-49
2021/03/31 12:39:00;;;;;;;2.25;1.90;;;21.10;44.40;;;;;;5090592;28;20056;-49
2021/03/31 12:41:26;;;;;;;3.35;1.50;;;21.10;44.40;;;;;;5084157;28;20039;-52
2021/03/31 12:43:51;;;;;;;2.65;1.55;;;21.10;44.40;;;;;;5085783;28;20028;-48
2021/03/31 12:46:17;;;;;;;2.35;1.67;;;21.10;44.40;;;;;;5092263;28;20032;-48
2021/03/31 12:48:43;;;;;;;3.65;1.60;;;21.10;44.30;;;;;;5076581;28;20091;-48
2021/03/31 12:51:12;;;;;;;3.35;2.03;;;21.10;44.30;;;;;;5085176;28;20028;-49
2021/03/31 12:54:02;;;;;;;2.58;1.77;;;21.10;44.30;;;;;;5082526;28;20441;-47
2021/03/31 12:56:28;;;;;;;4.05;1.85;;;21.10;44.20;;;;;;5077592;28;20146;-48
2021/03/31 12:58:53;;;;;;;3.38;1.67;;;21.10;44.20;;;;;;5093139;28;20119;-49
2021/03/31 13:01:24;;;;;;;2.88;1.85;;;21.10;44.10;;;;;;5080752;28;20039;-48
2021/03/31 13:03:51;;;;;;;3.17;1.45;;;21.10;44.10;;;;;;5083694;28;20029;-49
2021/03/31 13:06:18;;;;;;;3.55;2.03;;;21.10;44.10;;;;;;5076207;28;20067;-48
2021/03/31 13:08:47;;;;;;;5.53;2.00;;;21.20;44.10;;;;;;5086331;28;20024;-48
2021/03/31 13:11:14;;;;;;;3.35;2.00;;;21.20;44.10;;;;;;5079371;28;20436;-49
2021/03/31 13:16:13;;;;;;;3.15;1.80;;;21.20;44.00;;;;;;5082048;28;20054;-47
2021/03/31 13:31:48;;;;;;;2.20;1.80;;;21.30;43.70;;;;;;5088635;28;20028;-48
2021/03/31 13:34:22;;;;;;;3.80;1.95;;;21.30;43.70;;;;;;5090055;28;20475;-51
2021/03/31 13:36:53;;;;;;;3.45;2.25;;;21.30;43.70;;;;;;5090123;28;20042;-48
2021/03/31 13:39:25;;;;;;;4.17;2.37;;;21.30;43.60;;;;;;5089733;28;20046;-53
2021/03/31 13:41:51;;;;;;;3.55;1.52;;;21.30;43.60;;;;;;5090526;28;20300;-48